sensor_id;sensor_type;location;lat;lon;timestamp;P1;durP1;ratioP1;P2;durP2;ratioP2
52554;SDS011;38455;52.710;6.502;2023-01-30T00:00:58;50.13;;;25.30;;
52554;SDS011;38455;52.710;6.502;2023-01-30T00:03:25;49.03;;;22.98;;
52554;SDS011;38455;52.710;6.502;2023-01-30T00:05:51;42.35;;;24.85;;
52554;SDS011;38455;52.710;6.502;2023-01-30T00:08:17;51.30;;;23.23;;
52554;SDS011;38455;52.710;6.502;2023-01-30T00:10:43;48.13;;;23.98;;
52554;SDS011;38455;52.710;6.502;2023-01-30T00:13:10;42.13;;;23.70;;
52554;SDS011;38455;52.710;6.502;2023-01-30T00:15:36;47.65;;;23.50;;
52554;SDS011;38455;52.710;6.502;2023-01-30T00:18:02;43.90;;;23.45;;
52554;SDS011;38455;52.710;6.502;2023-01-30T00:20:28;44.95;;;23.70;;
52554;SDS011;38455;52.710;6.502;2023-01-30T00:22:54;45.88;;;23.42;;
52554;SDS011;38455;52.710;6.502;2023-01-30T00:25:20;39.53;;;22.98;;
52554;SDS011;38455;52.710;6.502;2023-01-30T00:27:45;40.55;;;23.10;;
52554;SDS011;38455;52.710;6.502;2023-01-30T00:30:11;42.95;;;23.10;;
52554;SDS011;38455;52.710;6.502;2023-01-30T00:32:37;42.25;;;22.73;;
52554;SDS011;38455;52.710;6.502;2023-01-30T00:35:02;42.35;;;22.23;;
52554;SDS011;38455;52.710;6.502;2023-01-30T00:37:28;40.75;;;22.98;;
52554;SDS011;38455;52.710;6.502;2023-01-30T00:39:54;38.30;;;20.30;;
52554;SDS011;38455;52.710;6.502;2023-01-30T00:42:19;38.08;;;22.40;;
52554;SDS011;38455;52.710;6.502;2023-01-30T00:45:04;45.10;;;22.63;;
52554;SDS011;38455;52.710;6.502;2023-01-30T00:47:48;42.25;;;21.60;;
52554;SDS011;38455;52.710;6.502;2023-01-30T00:50:14;44.55;;;21.80;;
52554;SDS011;38455;52.710;6.502;2023-01-30T00:52:40;51.53;;;22.38;;
52554;SDS011;38455;52.710;6.502;2023-01-30T00:55:06;38.92;;;21.85;;
52554;SDS011;38455;52.710;6.502;2023-01-30T00:57:32;41.50;;;20.92;;
52554;SDS011;38455;52.710;6.502;2023-01-30T00:59:57;44.50;;;21.15;;
52554;SDS011;38455;52.710;6.502;2023-01-30T01:02:23;39.35;;;21.38;;
52554;SDS011;38455;52.710;6.502;2023-01-30T01:04:49;42.97;;;20.88;;
52554;SDS011;38455;52.710;6.502;2023-01-30T01:07:14;38.92;;;20.85;;
52554;SDS011;38455;52.710;6.502;2023-01-30T01:09:40;43.30;;;22.05;;
52554;SDS011;38455;52.710;6.502;2023-01-30T01:12:06;38.38;;;20.00;;
52554;SDS011;38455;52.710;6.502;2023-01-30T01:14:32;35.45;;;19.58;;
52554;SDS011;38455;52.710;6.502;2023-01-30T01:16:58;38.90;;;19.33;;
52554;SDS011;38455;52.710;6.502;2023-01-30T01:19:24;41.97;;;20.45;;
52554;SDS011;38455;52.710;6.502;2023-01-30T01:21:49;38.13;;;19.40;;
52554;SDS011;38455;52.710;6.502;2023-01-30T01:24:15;40.38;;;20.13;;
52554;SDS011;38455;52.710;6.502;2023-01-30T01:26:41;37.42;;;19.13;;
52554;SDS011;38455;52.710;6.502;2023-01-30T01:29:11;48.65;;;20.27;;
52554;SDS011;38455;52.710;6.502;2023-01-30T01:31:37;38.65;;;18.77;;
52554;SDS011;38455;52.710;6.502;2023-01-30T01:34:03;38.28;;;18.75;;
52554;SDS011;38455;52.710;6.502;2023-01-30T01:36:29;37.83;;;18.10;;
52554;SDS011;38455;52.710;6.502;2023-01-30T01:38:54;47.28;;;19.98;;
52554;SDS011;38455;52.710;6.502;2023-01-30T01:41:20;36.95;;;18.60;;
52554;SDS011;38455;52.710;6.502;2023-01-30T01:46:30;42.55;;;19.33;;
52554;SDS011;38455;52.710;6.502;2023-01-30T01:49:00;39.05;;;17.67;;
52554;SDS011;38455;52.710;6.502;2023-01-30T01:51:40;31.33;;;16.20;;
52554;SDS011;38455;52.710;6.502;2023-01-30T01:54:14;38.17;;;17.73;;
52554;SDS011;38455;52.710;6.502;2023-01-30T01:56:45;36.28;;;15.68;;
52554;SDS011;38455;52.710;6.502;2023-01-30T01:59:22;32.13;;;15.68;;
52554;SDS011;38455;52.710;6.502;2023-01-30T02:01:53;30.48;;;13.50;;
52554;SDS011;38455;52.710;6.502;2023-01-30T02:04:22;32.92;;;14.43;;
52554;SDS011;38455;52.710;6.502;2023-01-30T02:07:08;26.85;;;12.73;;
52554;SDS011;38455;52.710;6.502;2023-01-30T02:09:34;25.52;;;13.32;;
52554;SDS011;38455;52.710;6.502;2023-01-30T02:12:00;25.88;;;12.00;;
52554;SDS011;38455;52.710;6.502;2023-01-30T02:14:29;22.30;;;11.65;;
52554;SDS011;38455;52.710;6.502;2023-01-30T02:16:57;21.48;;;11.02;;
52554;SDS011;38455;52.710;6.502;2023-01-30T02:28:27;26.65;;;8.73;;
52554;SDS011;38455;52.710;6.502;2023-01-30T02:34:06;20.83;;;9.23;;
52554;SDS011;38455;52.710;6.502;2023-01-30T02:37:20;16.65;;;7.55;;
52554;SDS011;38455;52.710;6.502;2023-01-30T02:47:45;17.23;;;7.00;;
52554;SDS011;38455;52.710;6.502;2023-01-30T02:50:26;18.45;;;6.63;;
52554;SDS011;38455;52.710;6.502;2023-01-30T02:52:56;13.63;;;5.53;;
52554;SDS011;38455;52.710;6.502;2023-01-30T02:55:26;20.40;;;6.53;;
52554;SDS011;38455;52.710;6.502;2023-01-30T02:57:53;15.75;;;7.22;;
52554;SDS011;38455;52.710;6.502;2023-01-30T03:00:31;26.65;;;7.72;;
52554;SDS011;38455;52.710;6.502;2023-01-30T03:06:09;16.42;;;7.05;;
52554;SDS011;38455;52.710;6.502;2023-01-30T03:11:15;28.08;;;6.63;;
52554;SDS011;38455;52.710;6.502;2023-01-30T03:16:47;19.67;;;6.35;;
52554;SDS011;38455;52.710;6.502;2023-01-30T03:19:18;21.25;;;6.10;;
52554;SDS011;38455;52.710;6.502;2023-01-30T03:21:44;23.27;;;6.57;;
52554;SDS011;38455;52.710;6.502;2023-01-30T03:24:11;28.55;;;7.13;;
52554;SDS011;38455;52.710;6.502;2023-01-30T03:26:41;18.58;;;6.35;;
52554;SDS011;38455;52.710;6.502;2023-01-30T03:29:22;12.55;;;4.88;;
52554;SDS011;38455;52.710;6.502;2023-01-30T03:31:48;20.63;;;6.18;;
52554;SDS011;38455;52.710;6.502;2023-01-30T03:34:14;19.90;;;6.05;;
52554;SDS011;38455;52.710;6.502;2023-01-30T03:36:40;21.20;;;6.28;;
52554;SDS011;38455;52.710;6.502;2023-01-30T03:39:05;20.10;;;6.28;;
52554;SDS011;38455;52.710;6.502;2023-01-30T03:41:31;21.05;;;5.97;;
52554;SDS011;38455;52.710;6.502;2023-01-30T03:43:57;23.70;;;5.95;;
52554;SDS011;38455;52.710;6.502;2023-01-30T03:46:22;26.38;;;6.20;;
52554;SDS011;38455;52.710;6.502;2023-01-30T03:48:48;25.17;;;7.07;;
52554;SDS011;38455;52.710;6.502;2023-01-30T03:51:13;17.13;;;5.30;;
52554;SDS011;38455;52.710;6.502;2023-01-30T03:53:39;25.05;;;6.10;;
52554;SDS011;38455;52.710;6.502;2023-01-30T03:56:05;19.38;;;5.97;;
52554;SDS011;38455;52.710;6.502;2023-01-30T03:58:30;19.35;;;8.10;;
52554;SDS011;38455;52.710;6.502;2023-01-30T04:00:56;22.27;;;6.68;;
52554;SDS011;38455;52.710;6.502;2023-01-30T04:03:22;22.73;;;5.85;;
52554;SDS011;38455;52.710;6.502;2023-01-30T04:05:48;17.50;;;5.70;;
52554;SDS011;38455;52.710;6.502;2023-01-30T04:08:14;21.55;;;7.13;;
52554;SDS011;38455;52.710;6.502;2023-01-30T04:10:39;19.52;;;5.93;;
52554;SDS011;38455;52.710;6.502;2023-01-30T04:13:05;20.67;;;5.97;;
52554;SDS011;38455;52.710;6.502;2023-01-30T04:15:30;18.58;;;5.90;;
52554;SDS011;38455;52.710;6.502;2023-01-30T04:17:56;29.95;;;6.72;;
52554;SDS011;38455;52.710;6.502;2023-01-30T04:20:22;34.78;;;9.48;;
52554;SDS011;38455;52.710;6.502;2023-01-30T04:22:48;15.68;;;5.32;;
52554;SDS011;38455;52.710;6.502;2023-01-30T04:25:14;20.60;;;6.07;;
52554;SDS011;38455;52.710;6.502;2023-01-30T04:27:39;28.83;;;7.55;;
52554;SDS011;38455;52.710;6.502;2023-01-30T04:30:05;22.75;;;5.40;;
52554;SDS011;38455;52.710;6.502;2023-01-30T04:32:31;19.75;;;5.85;;
52554;SDS011;38455;52.710;6.502;2023-01-30T04:34:57;23.48;;;6.30;;
52554;SDS011;38455;52.710;6.502;2023-01-30T04:37:22;25.05;;;5.45;;
52554;SDS011;38455;52.710;6.502;2023-01-30T04:39:48;28.85;;;5.25;;
52554;SDS011;38455;52.710;6.502;2023-01-30T04:42:14;19.05;;;5.10;;
52554;SDS011;38455;52.710;6.502;2023-01-30T04:44:39;21.27;;;4.10;;
52554;SDS011;38455;52.710;6.502;2023-01-30T04:47:05;22.25;;;5.03;;
52554;SDS011;38455;52.710;6.502;2023-01-30T04:49:30;22.38;;;5.03;;
52554;SDS011;38455;52.710;6.502;2023-01-30T04:51:56;19.65;;;4.80;;
52554;SDS011;38455;52.710;6.502;2023-01-30T04:54:22;25.67;;;6.38;;
52554;SDS011;38455;52.710;6.502;2023-01-30T04:56:47;22.80;;;4.93;;
52554;SDS011;38455;52.710;6.502;2023-01-30T04:59:13;15.23;;;3.63;;
52554;SDS011;38455;52.710;6.502;2023-01-30T05:01:38;27.27;;;5.90;;
52554;SDS011;38455;52.710;6.502;2023-01-30T05:04:05;17.83;;;3.42;;
52554;SDS011;38455;52.710;6.502;2023-01-30T05:06:32;16.23;;;4.30;;
52554;SDS011;38455;52.710;6.502;2023-01-30T05:08:58;22.63;;;4.40;;
52554;SDS011;38455;52.710;6.502;2023-01-30T05:11:25;26.60;;;5.30;;
52554;SDS011;38455;52.710;6.502;2023-01-30T05:13:52;26.67;;;4.20;;
52554;SDS011;38455;52.710;6.502;2023-01-30T05:16:19;24.33;;;3.95;;
52554;SDS011;38455;52.710;6.502;2023-01-30T05:18:46;19.38;;;3.90;;
52554;SDS011;38455;52.710;6.502;2023-01-30T05:21:12;26.40;;;4.80;;
52554;SDS011;38455;52.710;6.502;2023-01-30T05:23:43;19.77;;;3.80;;
52554;SDS011;38455;52.710;6.502;2023-01-30T05:26:09;18.83;;;3.97;;
52554;SDS011;38455;52.710;6.502;2023-01-30T05:28:36;23.35;;;4.70;;
52554;SDS011;38455;52.710;6.502;2023-01-30T05:33:32;20.77;;;4.25;;
52554;SDS011;38455;52.710;6.502;2023-01-30T05:35:58;22.10;;;3.75;;
52554;SDS011;38455;52.710;6.502;2023-01-30T05:38:24;21.73;;;4.13;;
52554;SDS011;38455;52.710;6.502;2023-01-30T05:41:00;23.17;;;4.20;;
52554;SDS011;38455;52.710;6.502;2023-01-30T05:43:27;33.00;;;7.43;;
52554;SDS011;38455;52.710;6.502;2023-01-30T05:45:54;33.67;;;5.78;;
52554;SDS011;38455;52.710;6.502;2023-01-30T05:48:21;25.55;;;6.25;;
52554;SDS011;38455;52.710;6.502;2023-01-30T05:50:54;22.45;;;4.13;;
52554;SDS011;38455;52.710;6.502;2023-01-30T05:53:22;23.38;;;5.53;;
52554;SDS011;38455;52.710;6.502;2023-01-30T05:55:57;27.90;;;5.68;;
52554;SDS011;38455;52.710;6.502;2023-01-30T05:58:23;23.17;;;4.15;;
52554;SDS011;38455;52.710;6.502;2023-01-30T06:00:50;20.88;;;5.07;;
52554;SDS011;38455;52.710;6.502;2023-01-30T06:03:16;30.25;;;5.22;;
52554;SDS011;38455;52.710;6.502;2023-01-30T06:05:42;23.33;;;4.03;;
52554;SDS011;38455;52.710;6.502;2023-01-30T06:08:07;15.50;;;3.80;;
52554;SDS011;38455;52.710;6.502;2023-01-30T06:10:33;21.50;;;5.22;;
52554;SDS011;38455;52.710;6.502;2023-01-30T06:12:59;28.42;;;4.53;;
52554;SDS011;38455;52.710;6.502;2023-01-30T06:15:25;23.02;;;5.05;;
52554;SDS011;38455;52.710;6.502;2023-01-30T06:17:51;26.40;;;5.50;;
52554;SDS011;38455;52.710;6.502;2023-01-30T06:20:16;22.98;;;4.88;;
52554;SDS011;38455;52.710;6.502;2023-01-30T06:22:42;23.50;;;4.80;;
52554;SDS011;38455;52.710;6.502;2023-01-30T06:25:08;28.77;;;4.40;;
52554;SDS011;38455;52.710;6.502;2023-01-30T06:27:34;23.45;;;4.38;;
52554;SDS011;38455;52.710;6.502;2023-01-30T06:29:59;27.48;;;5.78;;
52554;SDS011;38455;52.710;6.502;2023-01-30T06:32:25;15.20;;;4.60;;
52554;SDS011;38455;52.710;6.502;2023-01-30T06:34:51;21.92;;;3.25;;
52554;SDS011;38455;52.710;6.502;2023-01-30T06:37:16;37.28;;;8.25;;
52554;SDS011;38455;52.710;6.502;2023-01-30T06:39:42;34.45;;;6.35;;
52554;SDS011;38455;52.710;6.502;2023-01-30T06:42:07;23.88;;;4.45;;
52554;SDS011;38455;52.710;6.502;2023-01-30T06:44:33;24.85;;;4.18;;
52554;SDS011;38455;52.710;6.502;2023-01-30T06:46:59;33.33;;;4.90;;
52554;SDS011;38455;52.710;6.502;2023-01-30T06:49:24;18.42;;;3.58;;
52554;SDS011;38455;52.710;6.502;2023-01-30T06:51:50;25.02;;;5.55;;
52554;SDS011;38455;52.710;6.502;2023-01-30T06:54:15;23.02;;;4.40;;
52554;SDS011;38455;52.710;6.502;2023-01-30T06:56:41;24.95;;;4.63;;
52554;SDS011;38455;52.710;6.502;2023-01-30T06:59:07;18.02;;;3.30;;
52554;SDS011;38455;52.710;6.502;2023-01-30T07:01:32;22.90;;;4.65;;
52554;SDS011;38455;52.710;6.502;2023-01-30T07:03:58;36.47;;;5.75;;
52554;SDS011;38455;52.710;6.502;2023-01-30T07:06:25;25.60;;;4.50;;
52554;SDS011;38455;52.710;6.502;2023-01-30T07:08:51;19.08;;;4.20;;
52554;SDS011;38455;52.710;6.502;2023-01-30T07:11:17;22.35;;;5.05;;
52554;SDS011;38455;52.710;6.502;2023-01-30T07:13:43;21.23;;;3.90;;
52554;SDS011;38455;52.710;6.502;2023-01-30T07:16:08;19.48;;;3.42;;
52554;SDS011;38455;52.710;6.502;2023-01-30T07:18:34;20.58;;;3.10;;
52554;SDS011;38455;52.710;6.502;2023-01-30T07:21:00;25.17;;;4.28;;
52554;SDS011;38455;52.710;6.502;2023-01-30T07:23:25;24.52;;;4.03;;
52554;SDS011;38455;52.710;6.502;2023-01-30T07:25:51;33.63;;;5.65;;
52554;SDS011;38455;52.710;6.502;2023-01-30T07:28:17;21.85;;;3.70;;
52554;SDS011;38455;52.710;6.502;2023-01-30T07:30:42;25.55;;;3.88;;
52554;SDS011;38455;52.710;6.502;2023-01-30T07:33:08;27.83;;;4.50;;
52554;SDS011;38455;52.710;6.502;2023-01-30T07:35:34;25.23;;;4.85;;
52554;SDS011;38455;52.710;6.502;2023-01-30T07:38:01;36.45;;;5.95;;
52554;SDS011;38455;52.710;6.502;2023-01-30T07:40:27;26.17;;;4.43;;
52554;SDS011;38455;52.710;6.502;2023-01-30T07:45:21;24.75;;;3.20;;
52554;SDS011;38455;52.710;6.502;2023-01-30T07:47:47;27.23;;;5.03;;
52554;SDS011;38455;52.710;6.502;2023-01-30T07:50:13;19.48;;;4.15;;
52554;SDS011;38455;52.710;6.502;2023-01-30T07:52:38;25.10;;;4.65;;
52554;SDS011;38455;52.710;6.502;2023-01-30T07:55:04;25.02;;;5.13;;
52554;SDS011;38455;52.710;6.502;2023-01-30T07:57:30;24.92;;;4.63;;
52554;SDS011;38455;52.710;6.502;2023-01-30T07:59:55;23.98;;;4.65;;
52554;SDS011;38455;52.710;6.502;2023-01-30T08:02:21;32.25;;;4.85;;
52554;SDS011;38455;52.710;6.502;2023-01-30T08:04:47;19.75;;;3.80;;
52554;SDS011;38455;52.710;6.502;2023-01-30T08:07:12;36.20;;;4.85;;
52554;SDS011;38455;52.710;6.502;2023-01-30T08:09:38;24.00;;;4.50;;
52554;SDS011;38455;52.710;6.502;2023-01-30T08:12:03;35.17;;;4.68;;
52554;SDS011;38455;52.710;6.502;2023-01-30T08:14:29;22.00;;;4.18;;
52554;SDS011;38455;52.710;6.502;2023-01-30T08:16:55;23.23;;;4.65;;
52554;SDS011;38455;52.710;6.502;2023-01-30T08:19:21;22.52;;;4.03;;
52554;SDS011;38455;52.710;6.502;2023-01-30T08:21:47;30.02;;;5.60;;
52554;SDS011;38455;52.710;6.502;2023-01-30T08:24:12;25.00;;;6.13;;
52554;SDS011;38455;52.710;6.502;2023-01-30T08:26:38;21.80;;;3.90;;
52554;SDS011;38455;52.710;6.502;2023-01-30T08:29:04;37.45;;;6.38;;
52554;SDS011;38455;52.710;6.502;2023-01-30T08:31:30;29.27;;;4.80;;
52554;SDS011;38455;52.710;6.502;2023-01-30T08:33:56;28.42;;;6.35;;
52554;SDS011;38455;52.710;6.502;2023-01-30T08:36:21;27.58;;;4.82;;
52554;SDS011;38455;52.710;6.502;2023-01-30T08:38:47;19.50;;;3.65;;
52554;SDS011;38455;52.710;6.502;2023-01-30T08:41:12;17.17;;;3.65;;
52554;SDS011;38455;52.710;6.502;2023-01-30T08:43:38;29.63;;;4.63;;
52554;SDS011;38455;52.710;6.502;2023-01-30T08:46:04;28.92;;;4.38;;
52554;SDS011;38455;52.710;6.502;2023-01-30T08:48:30;39.72;;;6.35;;
52554;SDS011;38455;52.710;6.502;2023-01-30T08:50:56;22.83;;;5.20;;
52554;SDS011;38455;52.710;6.502;2023-01-30T08:53:22;32.42;;;6.32;;
52554;SDS011;38455;52.710;6.502;2023-01-30T08:55:48;26.63;;;5.55;;
52554;SDS011;38455;52.710;6.502;2023-01-30T08:58:18;30.02;;;4.90;;
52554;SDS011;38455;52.710;6.502;2023-01-30T09:00:44;29.10;;;4.50;;
52554;SDS011;38455;52.710;6.502;2023-01-30T09:03:11;26.38;;;4.20;;
52554;SDS011;38455;52.710;6.502;2023-01-30T09:05:38;28.58;;;5.63;;
52554;SDS011;38455;52.710;6.502;2023-01-30T09:08:04;34.80;;;5.30;;
52554;SDS011;38455;52.710;6.502;2023-01-30T09:10:29;27.40;;;5.32;;
52554;SDS011;38455;52.710;6.502;2023-01-30T09:12:55;24.63;;;5.13;;
52554;SDS011;38455;52.710;6.502;2023-01-30T09:15:21;27.17;;;5.40;;
52554;SDS011;38455;52.710;6.502;2023-01-30T09:17:47;31.67;;;5.63;;
52554;SDS011;38455;52.710;6.502;2023-01-30T09:20:13;28.95;;;5.53;;
52554;SDS011;38455;52.710;6.502;2023-01-30T09:22:39;21.05;;;4.05;;
52554;SDS011;38455;52.710;6.502;2023-01-30T09:25:05;27.98;;;5.88;;
52554;SDS011;38455;52.710;6.502;2023-01-30T09:27:31;28.83;;;5.80;;
52554;SDS011;38455;52.710;6.502;2023-01-30T09:29:56;24.13;;;4.50;;
52554;SDS011;38455;52.710;6.502;2023-01-30T09:32:22;22.00;;;3.53;;
52554;SDS011;38455;52.710;6.502;2023-01-30T09:34:48;26.92;;;5.93;;
52554;SDS011;38455;52.710;6.502;2023-01-30T09:37:13;20.48;;;5.90;;
52554;SDS011;38455;52.710;6.502;2023-01-30T09:39:39;28.58;;;4.40;;
52554;SDS011;38455;52.710;6.502;2023-01-30T09:45:06;23.15;;;4.25;;
52554;SDS011;38455;52.710;6.502;2023-01-30T09:53:49;21.15;;;4.32;;
52554;SDS011;38455;52.710;6.502;2023-01-30T09:56:27;24.52;;;4.10;;
52554;SDS011;38455;52.710;6.502;2023-01-30T09:58:54;19.48;;;4.10;;
52554;SDS011;38455;52.710;6.502;2023-01-30T10:01:35;32.25;;;4.43;;
52554;SDS011;38455;52.710;6.502;2023-01-30T10:06:43;33.90;;;5.47;;
52554;SDS011;38455;52.710;6.502;2023-01-30T10:15:21;26.45;;;7.30;;
52554;SDS011;38455;52.710;6.502;2023-01-30T10:21:10;28.25;;;5.13;;
52554;SDS011;38455;52.710;6.502;2023-01-30T10:26:27;20.38;;;4.95;;
52554;SDS011;38455;52.710;6.502;2023-01-30T10:31:27;22.15;;;4.35;;
52554;SDS011;38455;52.710;6.502;2023-01-30T10:34:06;32.28;;;5.05;;
52554;SDS011;38455;52.710;6.502;2023-01-30T10:36:39;38.47;;;7.47;;
52554;SDS011;38455;52.710;6.502;2023-01-30T10:42:09;21.15;;;5.13;;
52554;SDS011;38455;52.710;6.502;2023-01-30T10:44:40;24.65;;;6.18;;
52554;SDS011;38455;52.710;6.502;2023-01-30T10:49:47;25.55;;;6.72;;
52554;SDS011;38455;52.710;6.502;2023-01-30T10:55:21;24.13;;;4.80;;
52554;SDS011;38455;52.710;6.502;2023-01-30T11:06:09;18.00;;;4.70;;
52554;SDS011;38455;52.710;6.502;2023-01-30T11:08:37;24.63;;;4.32;;
52554;SDS011;38455;52.710;6.502;2023-01-30T11:13:50;21.52;;;5.00;;
52554;SDS011;38455;52.710;6.502;2023-01-30T11:16:25;23.63;;;4.20;;
52554;SDS011;38455;52.710;6.502;2023-01-30T11:18:51;24.60;;;4.65;;
52554;SDS011;38455;52.710;6.502;2023-01-30T11:21:24;22.67;;;5.22;;
52554;SDS011;38455;52.710;6.502;2023-01-30T11:23:52;21.95;;;4.75;;
52554;SDS011;38455;52.710;6.502;2023-01-30T11:28:49;22.63;;;4.10;;
52554;SDS011;38455;52.710;6.502;2023-01-30T11:31:19;32.25;;;4.32;;
52554;SDS011;38455;52.710;6.502;2023-01-30T11:33:59;27.63;;;4.50;;
52554;SDS011;38455;52.710;6.502;2023-01-30T11:36:32;29.58;;;4.75;;
52554;SDS011;38455;52.710;6.502;2023-01-30T11:39:00;22.15;;;5.65;;
52554;SDS011;38455;52.710;6.502;2023-01-30T11:41:29;29.58;;;6.80;;
52554;SDS011;38455;52.710;6.502;2023-01-30T11:44:02;35.22;;;6.03;;
52554;SDS011;38455;52.710;6.502;2023-01-30T11:46:35;34.95;;;5.80;;
52554;SDS011;38455;52.710;6.502;2023-01-30T11:49:21;40.55;;;6.50;;
52554;SDS011;38455;52.710;6.502;2023-01-30T11:51:50;29.00;;;5.80;;
52554;SDS011;38455;52.710;6.502;2023-01-30T11:54:19;27.08;;;4.90;;
52554;SDS011;38455;52.710;6.502;2023-01-30T11:56:51;31.25;;;6.32;;
52554;SDS011;38455;52.710;6.502;2023-01-30T11:59:27;19.65;;;4.35;;
52554;SDS011;38455;52.710;6.502;2023-01-30T12:02:13;24.92;;;5.93;;
52554;SDS011;38455;52.710;6.502;2023-01-30T12:04:45;32.53;;;5.85;;
52554;SDS011;38455;52.710;6.502;2023-01-30T12:07:25;33.15;;;6.15;;
52554;SDS011;38455;52.710;6.502;2023-01-30T12:09:52;24.40;;;3.88;;
52554;SDS011;38455;52.710;6.502;2023-01-30T12:12:29;26.55;;;4.57;;
52554;SDS011;38455;52.710;6.502;2023-01-30T12:15:27;21.88;;;5.15;;
52554;SDS011;38455;52.710;6.502;2023-01-30T12:28:37;19.58;;;2.60;;
52554;SDS011;38455;52.710;6.502;2023-01-30T12:31:10;22.25;;;3.65;;
52554;SDS011;38455;52.710;6.502;2023-01-30T12:33:43;13.00;;;3.28;;
52554;SDS011;38455;52.710;6.502;2023-01-30T12:38:56;20.95;;;3.20;;
52554;SDS011;38455;52.710;6.502;2023-01-30T12:57:31;17.25;;;3.20;;
52554;SDS011;38455;52.710;6.502;2023-01-30T13:05:50;15.18;;;2.67;;
52554;SDS011;38455;52.710;6.502;2023-01-30T13:19:20;11.20;;;2.55;;
52554;SDS011;38455;52.710;6.502;2023-01-30T13:22:10;17.08;;;2.72;;
52554;SDS011;38455;52.710;6.502;2023-01-30T13:24:56;20.25;;;3.10;;
52554;SDS011;38455;52.710;6.502;2023-01-30T13:27:27;16.77;;;3.47;;
52554;SDS011;38455;52.710;6.502;2023-01-30T13:29:55;18.40;;;3.15;;
52554;SDS011;38455;52.710;6.502;2023-01-30T13:32:29;22.67;;;3.63;;
52554;SDS011;38455;52.710;6.502;2023-01-30T13:35:06;19.17;;;3.53;;
52554;SDS011;38455;52.710;6.502;2023-01-30T13:37:42;18.65;;;3.15;;
52554;SDS011;38455;52.710;6.502;2023-01-30T13:40:18;23.40;;;3.67;;
52554;SDS011;38455;52.710;6.502;2023-01-30T13:42:52;21.60;;;4.63;;
52554;SDS011;38455;52.710;6.502;2023-01-30T13:45:25;21.23;;;5.18;;
52554;SDS011;38455;52.710;6.502;2023-01-30T13:53:24;19.93;;;4.40;;
52554;SDS011;38455;52.710;6.502;2023-01-30T14:02:26;20.27;;;3.35;;
52554;SDS011;38455;52.710;6.502;2023-01-30T14:09:36;24.30;;;5.15;;
52554;SDS011;38455;52.710;6.502;2023-01-30T14:12:04;27.05;;;4.85;;
52554;SDS011;38455;52.710;6.502;2023-01-30T14:14:33;27.98;;;5.07;;
52554;SDS011;38455;52.710;6.502;2023-01-30T14:19:38;26.10;;;5.40;;
52554;SDS011;38455;52.710;6.502;2023-01-30T14:27:51;24.83;;;5.55;;
52554;SDS011;38455;52.710;6.502;2023-01-30T14:32:56;26.40;;;4.65;;
52554;SDS011;38455;52.710;6.502;2023-01-30T14:35:24;31.73;;;6.40;;
52554;SDS011;38455;52.710;6.502;2023-01-30T14:38:10;33.88;;;7.32;;
52554;SDS011;38455;52.710;6.502;2023-01-30T14:54:34;38.92;;;6.45;;
52554;SDS011;38455;52.710;6.502;2023-01-30T14:59:34;33.00;;;6.00;;
52554;SDS011;38455;52.710;6.502;2023-01-30T15:09:56;34.72;;;5.35;;
52554;SDS011;38455;52.710;6.502;2023-01-30T15:20:27;30.25;;;6.32;;
52554;SDS011;38455;52.710;6.502;2023-01-30T15:26:32;26.80;;;5.57;;
52554;SDS011;38455;52.710;6.502;2023-01-30T15:32:21;29.65;;;6.90;;
52554;SDS011;38455;52.710;6.502;2023-01-30T15:34:59;32.13;;;4.97;;
52554;SDS011;38455;52.710;6.502;2023-01-30T15:48:55;32.90;;;5.30;;
52554;SDS011;38455;52.710;6.502;2023-01-30T15:51:00;24.33;;;4.78;;
52554;SDS011;38455;52.710;6.502;2023-01-30T15:53:28;39.40;;;6.20;;
52554;SDS011;38455;52.710;6.502;2023-01-30T15:56:00;20.75;;;5.05;;
52554;SDS011;38455;52.710;6.502;2023-01-30T15:58:27;28.13;;;5.35;;
52554;SDS011;38455;52.710;6.502;2023-01-30T16:00:55;27.80;;;5.95;;
52554;SDS011;38455;52.710;6.502;2023-01-30T16:03:34;30.02;;;6.22;;
52554;SDS011;38455;52.710;6.502;2023-01-30T16:06:04;31.33;;;6.00;;
52554;SDS011;38455;52.710;6.502;2023-01-30T16:08:32;37.00;;;5.60;;
52554;SDS011;38455;52.710;6.502;2023-01-30T16:10:58;36.03;;;5.00;;
52554;SDS011;38455;52.710;6.502;2023-01-30T16:13:25;37.28;;;6.32;;
52554;SDS011;38455;52.710;6.502;2023-01-30T16:21:35;31.23;;;5.72;;
52554;SDS011;38455;52.710;6.502;2023-01-30T16:24:21;21.13;;;5.13;;
52554;SDS011;38455;52.710;6.502;2023-01-30T16:26:51;28.33;;;5.55;;
52554;SDS011;38455;52.710;6.502;2023-01-30T16:29:21;38.83;;;5.63;;
52554;SDS011;38455;52.710;6.502;2023-01-30T16:31:48;26.10;;;4.78;;
52554;SDS011;38455;52.710;6.502;2023-01-30T16:34:30;19.58;;;4.32;;
52554;SDS011;38455;52.710;6.502;2023-01-30T16:37:05;26.35;;;5.25;;
52554;SDS011;38455;52.710;6.502;2023-01-30T16:42:34;41.28;;;5.82;;
52554;SDS011;38455;52.710;6.502;2023-01-30T16:47:55;32.05;;;6.20;;
52554;SDS011;38455;52.710;6.502;2023-01-30T16:51:03;28.08;;;4.70;;
52554;SDS011;38455;52.710;6.502;2023-01-30T16:53:51;25.55;;;4.18;;
52554;SDS011;38455;52.710;6.502;2023-01-30T16:56:20;28.00;;;4.18;;
52554;SDS011;38455;52.710;6.502;2023-01-30T16:58:57;20.38;;;3.55;;
52554;SDS011;38455;52.710;6.502;2023-01-30T17:01:34;25.10;;;5.45;;
52554;SDS011;38455;52.710;6.502;2023-01-30T17:04:02;25.33;;;4.63;;
52554;SDS011;38455;52.710;6.502;2023-01-30T17:06:35;25.58;;;4.85;;
52554;SDS011;38455;52.710;6.502;2023-01-30T17:09:05;22.70;;;4.00;;
52554;SDS011;38455;52.710;6.502;2023-01-30T17:11:50;25.05;;;4.65;;
52554;SDS011;38455;52.710;6.502;2023-01-30T17:14:17;21.92;;;3.40;;
52554;SDS011;38455;52.710;6.502;2023-01-30T17:17:06;34.13;;;5.20;;
52554;SDS011;38455;52.710;6.502;2023-01-30T17:19:36;23.35;;;4.18;;
52554;SDS011;38455;52.710;6.502;2023-01-30T17:22:03;20.70;;;4.68;;
52554;SDS011;38455;52.710;6.502;2023-01-30T17:24:31;16.27;;;3.60;;
52554;SDS011;38455;52.710;6.502;2023-01-30T17:26:59;24.17;;;4.63;;
52554;SDS011;38455;52.710;6.502;2023-01-30T17:29:27;15.13;;;3.45;;
52554;SDS011;38455;52.710;6.502;2023-01-30T17:31:55;23.52;;;4.93;;
52554;SDS011;38455;52.710;6.502;2023-01-30T17:34:21;17.67;;;2.88;;
52554;SDS011;38455;52.710;6.502;2023-01-30T17:36:47;17.20;;;3.70;;
52554;SDS011;38455;52.710;6.502;2023-01-30T17:39:16;27.05;;;5.13;;
52554;SDS011;38455;52.710;6.502;2023-01-30T17:41:44;26.65;;;3.88;;
52554;SDS011;38455;52.710;6.502;2023-01-30T17:44:10;26.08;;;4.75;;
52554;SDS011;38455;52.710;6.502;2023-01-30T17:49:05;20.02;;;3.80;;
52554;SDS011;38455;52.710;6.502;2023-01-30T17:51:31;24.38;;;5.18;;
52554;SDS011;38455;52.710;6.502;2023-01-30T17:53:57;25.73;;;4.28;;
52554;SDS011;38455;52.710;6.502;2023-01-30T17:56:26;17.83;;;4.93;;
52554;SDS011;38455;52.710;6.502;2023-01-30T17:58:56;27.52;;;4.05;;
52554;SDS011;38455;52.710;6.502;2023-01-30T18:01:22;24.55;;;3.92;;
52554;SDS011;38455;52.710;6.502;2023-01-30T18:03:47;21.05;;;5.50;;
52554;SDS011;38455;52.710;6.502;2023-01-30T18:06:13;20.25;;;4.25;;
52554;SDS011;38455;52.710;6.502;2023-01-30T18:08:40;20.45;;;4.72;;
52554;SDS011;38455;52.710;6.502;2023-01-30T18:11:06;20.58;;;4.38;;
52554;SDS011;38455;52.710;6.502;2023-01-30T18:13:39;21.40;;;4.00;;
52554;SDS011;38455;52.710;6.502;2023-01-30T18:16:13;21.13;;;4.95;;
52554;SDS011;38455;52.710;6.502;2023-01-30T18:18:52;26.15;;;4.78;;
52554;SDS011;38455;52.710;6.502;2023-01-30T18:21:18;41.10;;;5.57;;
52554;SDS011;38455;52.710;6.502;2023-01-30T18:23:46;26.77;;;5.55;;
52554;SDS011;38455;52.710;6.502;2023-01-30T18:26:13;31.90;;;5.90;;